Time;durP1;ratioP1;P1;durP2;ratioP2;P2;SDS_P1;SDS_P2;PMS_P1;PMS_P2;Temp;Humidity;BMP_temperature;BMP_pressure;BME280_temperature;BME280_humidity;BME280_pressure;Samples;Min_cycle;Max_cycle;Signal;HPM_P1;HPM_P2
2022/04/13 00:02:06;;;;;;;5.75;5.55;;;;;;;3.85;65.55;101089.25;5032184;28;20435;-63
2022/04/13 00:04:32;;;;;;;5.80;5.60;;;;;;;3.82;65.70;101092.13;5032086;28;20017;-62
2022/04/13 00:06:57;;;;;;;6.15;5.85;;;;;;;3.67;65.11;101065.25;5032041;28;20032;-62
2022/04/13 00:09:24;;;;;;;5.80;5.60;;;;;;;3.74;65.74;101087.44;5070741;28;20029;-61
2022/04/13 00:11:51;;;;;;;5.95;5.70;;;;;;;3.71;65.84;101089.47;5056014;28;20079;-62
2022/04/13 00:14:18;;;;;;;5.70;5.50;;;;;;;3.70;65.64;101085.19;5072133;28;20029;-62
2022/04/13 00:16:43;;;;;;;5.70;5.50;;;;;;;3.66;65.60;101083.72;5072026;28;20074;-63
2022/04/13 00:19:09;;;;;;;5.65;5.45;;;;;;;3.67;65.86;101095.88;5059355;28;20025;-62
2022/04/13 00:21:34;;;;;;;6.30;6.00;;;;;;;3.64;65.71;101098.75;5033652;28;20373;-62
2022/04/13 00:24:00;;;;;;;6.00;5.70;;;;;;;3.62;65.47;101090.19;5051786;28;20365;-63
2022/04/13 00:26:25;;;;;;;6.30;6.00;;;;;;;3.58;65.50;101093.00;5038457;28;20401;-63
2022/04/13 00:28:51;;;;;;;5.97;5.70;;;;;;;3.57;65.81;101088.72;5036305;28;20105;-63
2022/04/13 00:31:16;;;;;;;6.20;5.90;;;;;;;3.53;66.31;101087.31;5074635;28;20109;-63
2022/04/13 00:33:42;;;;;;;5.75;5.55;;;;;;;3.55;66.53;101088.00;5062097;28;20067;-62
2022/04/13 00:36:07;;;;;;;6.00;5.70;;;;;;;3.50;65.70;101090.13;5055629;28;20067;-62
2022/04/13 00:38:33;;;;;;;6.55;6.25;;;;;;;3.44;66.13;101079.25;5054224;28;20037;-62
2022/04/13 00:40:59;;;;;;;5.80;5.60;;;;;;;3.47;66.34;101085.13;5051768;28;20020;-62
2022/04/13 00:43:24;;;;;;;6.88;6.55;;;;;;;3.39;66.07;101090.13;5052663;28;20387;-62
2022/04/13 00:45:51;;;;;;;5.80;5.60;;;;;;;3.42;66.22;101089.03;5035639;28;20502;-62
2022/04/13 00:48:32;;;;;;;6.13;5.82;;;;;;;3.40;66.32;101085.72;5073874;28;20063;-62
2022/04/13 00:50:58;;;;;;;6.00;5.70;;;;;;;3.37;66.06;101078.88;5055666;28;20484;-63
2022/04/13 00:53:24;;;;;;;6.18;5.88;;;;;;;3.38;66.23;101090.22;5049632;28;20435;-63
2022/04/13 00:55:54;;;;;;;5.80;5.60;;;;;;;3.34;66.48;101089.63;5050396;28;20514;-63
2022/04/13 00:58:22;;;;;;;5.82;5.63;;;;;;;3.33;66.51;101075.66;5075476;28;20031;-62
2022/04/13 01:00:48;;;;;;;6.25;5.95;;;;;;;3.31;66.32;101074.13;5054295;28;20037;-63
2022/04/13 01:03:24;;;;;;;5.60;5.40;;;;;;;3.29;66.19;101081.25;5039301;28;20029;-63
2022/04/13 01:05:51;;;;;;;6.10;5.80;;;;;;;3.22;66.45;101080.03;5054997;28;20020;-62
2022/04/13 01:08:17;;;;;;;6.10;5.80;;;;;;;3.22;66.81;101080.03;5055111;28;20032;-64
2022/04/13 01:10:47;;;;;;;5.97;5.68;;;;;;;3.15;65.88;101069.16;5055056;28;20025;-63
2022/04/13 01:13:14;;;;;;;5.90;5.68;;;;;;;3.18;66.41;101074.19;5055072;28;20098;-62
2022/04/13 01:15:40;;;;;;;5.97;5.68;;;;;;;3.15;66.16;101076.19;5053890;28;20062;-62
2022/04/13 01:18:07;;;;;;;5.75;5.55;;;;;;;3.14;66.70;101074.53;5054410;28;20033;-62
2022/04/13 01:20:42;;;;;;;6.25;5.95;;;;;;;3.08;67.31;101078.41;5052350;28;20021;-63
2022/04/13 01:23:07;;;;;;;6.10;5.80;;;;;;;3.05;67.45;101071.63;5034706;28;20033;-62
2022/04/13 01:25:33;;;;;;;6.15;5.85;;;;;;;3.01;67.65;101072.81;5035103;28;20030;-62
2022/04/13 01:27:58;;;;;;;5.97;5.72;;;;;;;3.00;67.25;101073.75;5034770;28;20358;-62
2022/04/13 01:30:25;;;;;;;6.00;5.70;;;;;;;2.93;67.28;101056.78;5057699;28;20024;-62
2022/04/13 01:32:51;;;;;;;6.20;5.90;;;;;;;3.00;67.01;101075.53;5068319;28;20052;-63
2022/04/13 01:35:17;;;;;;;5.82;5.63;;;;;;;2.95;67.35;101062.78;5053971;28;20041;-62
2022/04/13 01:37:44;;;;;;;6.13;5.82;;;;;;;2.92;67.84;101065.63;5053739;28;20025;-62
2022/04/13 01:40:10;;;;;;;6.18;5.88;;;;;;;2.92;67.18;101065.63;5049916;28;20136;-62
2022/04/13 01:42:36;;;;;;;6.05;5.75;;;;;;;2.90;67.46;101064.06;5034480;28;20025;-63
2022/04/13 01:45:03;;;;;;;5.82;5.63;;;;;;;2.93;67.54;101069.06;5033869;28;20033;-62
2022/04/13 01:47:28;;;;;;;6.30;6.00;;;;;;;2.92;67.83;101064.78;5034126;28;20033;-62
2022/04/13 01:49:54;;;;;;;5.72;5.53;;;;;;;2.86;67.74;101067.84;5047399;28;20040;-62
2022/04/13 01:52:20;;;;;;;6.00;5.78;;;;;;;2.83;67.65;101063.66;5054182;28;20025;-62
2022/04/13 01:54:45;;;;;;;6.30;6.00;;;;;;;2.88;67.24;101061.56;5055355;28;20031;-61
2022/04/13 01:57:11;;;;;;;6.22;5.93;;;;;;;2.84;68.32;101073.19;5073988;28;20051;-62
2022/04/13 01:59:36;;;;;;;6.55;6.25;;;;;;;2.81;68.34;101073.44;5056389;28;20063;-62
2022/04/13 02:02:04;;;;;;;5.80;5.60;;;;;;;2.78;68.00;101063.16;5034464;28;20056;-61
2022/04/13 02:04:30;;;;;;;6.32;6.03;;;;;;;2.73;68.12;101063.50;5034066;28;20021;-61
2022/04/13 02:06:56;;;;;;;6.28;5.97;;;;;;;2.70;68.77;101053.25;5033754;28;20044;-62
2022/04/13 02:09:22;;;;;;;5.75;5.55;;;;;;;2.76;68.82;101065.06;5072777;28;20103;-63
2022/04/13 02:11:48;;;;;;;6.22;5.93;;;;;;;2.72;68.72;101069.69;5066698;28;20111;-62
2022/04/13 02:14:13;;;;;;;6.10;5.80;;;;;;;2.69;68.74;101076.94;5053835;28;20056;-63
2022/04/13 02:16:39;;;;;;;6.43;6.13;;;;;;;2.66;68.75;101066.69;5053521;28;20063;-61
2022/04/13 02:19:07;;;;;;;6.35;6.05;;;;;;;2.64;69.01;101068.56;5051074;28;20032;-62
2022/04/13 02:21:33;;;;;;;6.38;6.07;;;;;;;2.61;69.25;101069.63;5041665;28;20041;-63
2022/04/13 02:23:59;;;;;;;6.10;5.80;;;;;;;2.63;68.83;101072.97;5033741;28;20033;-62
2022/04/13 02:26:24;;;;;;;6.15;5.85;;;;;;;2.65;68.86;101070.25;5033677;28;20071;-62
2022/04/13 02:28:50;;;;;;;6.20;5.90;;;;;;;2.63;69.43;101067.72;5049938;28;20073;-62
2022/04/13 02:31:16;;;;;;;6.10;5.80;;;;;;;2.60;69.33;101061.88;5073483;28;20016;-63
2022/04/13 02:33:42;;;;;;;6.18;5.88;;;;;;;2.60;69.86;101057.47;5060032;28;20021;-62
2022/04/13 02:36:07;;;;;;;5.65;5.45;;;;;;;2.54;69.95;101062.31;5043479;28;20030;-62
2022/04/13 02:38:33;;;;;;;5.80;5.60;;;;;;;2.65;69.64;101070.25;5033325;28;20112;-62
2022/04/13 02:40:59;;;;;;;5.78;5.57;;;;;;;2.63;69.63;101067.72;5048151;28;20033;-62
2022/04/13 02:43:27;;;;;;;6.35;6.05;;;;;;;2.64;69.14;101058.09;5053203;28;20395;-62
2022/04/13 02:45:53;;;;;;;6.07;5.78;;;;;;;2.61;69.55;101059.16;5053752;28;20032;-63
2022/04/13 02:48:19;;;;;;;5.95;5.72;;;;;;;2.61;69.35;101059.16;5047200;28;20026;-62
2022/04/13 02:50:44;;;;;;;6.20;5.90;;;;;;;2.60;69.38;101060.09;5035285;28;20104;-63
2022/04/13 02:53:10;;;;;;;6.20;5.90;;;;;;;2.60;69.58;101059.25;5031856;28;20068;-63
2022/04/13 02:55:35;;;;;;;6.45;6.15;;;;;;;2.60;69.79;101054.03;5048137;28;20031;-63
2022/04/13 02:58:01;;;;;;;6.40;6.10;;;;;;;2.59;70.44;101053.19;5042148;28;20037;-61
2022/04/13 03:00:26;;;;;;;6.30;6.00;;;;;;;2.62;69.85;101054.75;5049740;28;20059;-61
2022/04/13 03:02:53;;;;;;;6.03;5.72;;;;;;;2.64;70.39;101055.47;5054080;28;20029;-62
2022/04/13 03:05:18;;;;;;;6.10;5.80;;;;;;;2.66;69.75;101050.97;5034318;28;20037;-62
2022/04/13 03:07:44;;;;;;;5.95;5.70;;;;;;;2.71;69.80;101054.06;5042867;28;20025;-63
2022/04/13 03:10:09;;;;;;;6.07;5.78;;;;;;;2.71;69.85;101051.44;5053523;28;20036;-62
2022/04/13 03:12:35;;;;;;;6.20;5.90;;;;;;;2.77;69.25;101053.63;5053035;28;20032;-62
2022/04/13 03:15:05;;;;;;;6.18;5.88;;;;;;;2.79;69.48;101056.97;5052969;28;20028;-63
2022/04/13 03:17:31;;;;;;;6.30;6.00;;;;;;;2.81;69.03;101051.63;5049333;28;20100;-62
2022/04/13 03:19:57;;;;;;;5.93;5.70;;;;;;;2.76;69.21;101052.81;5061243;28;20025;-64
2022/04/13 03:22:23;;;;;;;6.10;5.80;;;;;;;2.80;69.58;101055.22;5047771;28;20032;-63
2022/04/13 03:24:48;;;;;;;6.07;5.80;;;;;;;2.85;68.96;101058.31;5055426;28;20082;-62
2022/04/13 03:27:14;;;;;;;6.20;5.90;;;;;;;2.82;68.81;101056.75;5072274;28;20060;-62
2022/04/13 03:29:39;;;;;;;6.20;5.90;;;;;;;2.89;69.27;101058.00;5070679;28;20036;-62
2022/04/13 03:32:05;;;;;;;6.57;6.28;;;;;;;2.90;68.82;101059.66;5048092;28;20021;-62
2022/04/13 03:34:31;;;;;;;6.30;6.00;;;;;;;2.94;68.94;101055.88;5060316;28;20074;-63
2022/04/13 03:36:57;;;;;;;5.90;5.70;;;;;;;3.04;68.49;101050.78;5063501;28;20020;-62
2022/04/13 03:39:23;;;;;;;6.32;6.03;;;;;;;3.09;68.03;101051.28;5068010;28;20035;-64
2022/04/13 03:41:49;;;;;;;7.65;7.25;;;;;;;3.15;68.07;101048.19;5050781;28;20415;-62
2022/04/13 03:44:14;;;;;;;6.20;5.90;;;;;;;3.27;68.04;101056.94;5070387;28;20407;-62
2022/04/13 03:46:40;;;;;;;6.47;6.18;;;;;;;3.36;67.25;101043.13;5036567;28;20035;-62
2022/04/13 03:49:07;;;;;;;5.95;5.68;;;;;;;3.64;66.39;101051.53;5054232;28;20021;-62
2022/04/13 03:51:33;;;;;;;6.68;6.38;;;;;;;4.02;64.66;101054.66;5050893;28;20029;-63
2022/04/13 03:53:58;;;;;;;5.93;5.70;;;;;;;4.47;63.38;101054.63;5067204;28;20525;-62
2022/04/13 03:56:24;;;;;;;6.60;6.30;;;;;;;4.93;61.82;101048.28;5038264;28;20128;-63
2022/04/13 03:58:49;;;;;;;5.70;5.50;;;;;;;5.37;60.20;101054.31;5062544;28;20047;-62
2022/04/13 04:01:15;;;;;;;6.30;6.00;;;;;;;5.80;58.63;101057.63;5048161;28;20032;-61
2022/04/13 04:03:41;;;;;;;6.03;5.72;;;;;;;6.10;57.21;101058.63;5061941;28;20111;-62
2022/04/13 04:06:06;;;;;;;6.43;6.13;;;;;;;6.50;55.21;101063.03;5041023;28;20033;-62
2022/04/13 04:08:35;;;;;;;6.60;6.30;;;;;;;7.32;53.03;101050.31;5052407;28;20017;-63
2022/04/13 04:11:01;;;;;;;6.43;6.13;;;;;;;9.01;49.34;101062.38;5048575;28;20056;-63
2022/04/13 04:13:27;;;;;;;5.82;5.63;;;;;;;10.36;44.89;101057.50;5031768;28;20029;-63
2022/04/13 04:15:52;;;;;;;6.45;6.15;;;;;;;11.55;41.56;101059.81;5047515;28;20108;-63
2022/04/13 04:18:18;;;;;;;6.53;6.22;;;;;;;11.22;41.84;101059.81;5036741;28;20499;-63
2022/04/13 04:20:44;;;;;;;7.10;6.80;;;;;;;12.55;38.98;101073.47;5054990;28;20511;-62
2022/04/13 04:23:09;;;;;;;6.05;5.85;;;;;;;12.52;38.32;101079.16;5064636;28;20017;-62
2022/04/13 04:25:36;;;;;;;6.15;5.93;;;;;;;13.94;35.52;101076.75;5047322;28;20497;-62
2022/04/13 04:28:03;;;;;;;6.72;6.43;;;;;;;13.80;36.21;101082.88;5047814;28;20063;-62
2022/04/13 04:30:31;;;;;;;6.55;6.25;;;;;;;14.01;35.73;101076.84;5051708;28;20125;-63
2022/04/13 04:32:57;;;;;;;6.55;6.25;;;;;;;15.20;33.57;101081.78;5058807;28;20027;-62
2022/04/13 04:35:23;;;;;;;6.82;6.53;;;;;;;15.92;32.24;101080.72;5071592;28;20028;-64
2022/04/13 04:37:48;;;;;;;6.88;6.57;;;;;;;14.66;33.17;101073.41;5050015;28;20044;-63
2022/04/13 04:40:14;;;;;;;6.68;6.38;;;;;;;16.15;31.30;101080.44;5067955;28;20107;-62
2022/04/13 04:42:49;;;;;;;6.47;6.18;;;;;;;17.10;30.25;101068.03;5071746;28;20155;-64
2022/04/13 04:45:19;;;;;;;6.90;6.60;;;;;;;16.97;30.52;101078.75;5066867;28;20132;-64
2022/04/13 04:47:50;;;;;;;7.35;7.05;;;;;;;17.32;29.31;101072.16;5070525;28;20039;-62
2022/04/13 04:50:17;;;;;;;7.07;6.78;;;;;;;18.04;28.67;101075.84;5031778;28;20034;-64
2022/04/13 04:52:44;;;;;;;6.82;6.53;;;;;;;17.06;29.71;101067.63;5034727;28;20029;-63
2022/04/13 04:55:18;;;;;;;7.07;6.78;;;;;;;18.15;28.56;101087.81;5055913;28;20444;-63
2022/04/13 04:57:44;;;;;;;6.85;6.55;;;;;;;18.37;27.75;101089.19;5069424;28;20102;-63
2022/04/13 05:00:14;;;;;;;7.53;7.22;;;;;;;18.14;28.03;101092.38;5065318;28;20117;-64
2022/04/13 05:02:39;;;;;;;6.82;6.53;;;;;;;18.03;27.93;101087.63;5075003;28;20488;-64
2022/04/13 05:05:06;;;;;;;7.20;6.90;;;;;;;19.65;26.26;101088.25;5064914;28;20036;-63
2022/04/13 05:07:33;;;;;;;7.15;6.85;;;;;;;19.28;26.71;101083.53;5062402;28;20016;-63
2022/04/13 05:09:59;;;;;;;7.18;6.88;;;;;;;20.01;25.52;101088.31;5071268;28;20025;-62
2022/04/13 05:12:25;;;;;;;7.30;7.00;;;;;;;19.40;25.95;101086.34;5072575;28;20089;-63
2022/04/13 05:14:54;;;;;;;7.07;6.78;;;;;;;19.70;26.25;101074.97;5050396;28;20125;-63
2022/04/13 05:17:20;;;;;;;6.85;6.55;;;;;;;20.77;25.31;101084.31;5034580;28;20026;-64
2022/04/13 05:19:46;;;;;;;7.22;6.93;;;;;;;19.25;26.31;101075.91;5050933;28;20480;-63
2022/04/13 05:22:11;;;;;;;7.38;7.07;;;;;;;19.69;25.90;101068.75;5054567;28;20040;-64
2022/04/13 05:24:37;;;;;;;7.43;7.13;;;;;;;19.70;25.62;101069.56;5054586;28;20021;-63
2022/04/13 05:27:03;;;;;;;7.07;6.78;;;;;;;19.47;25.83;101065.59;5061635;28;20024;-63
2022/04/13 05:29:28;;;;;;;7.13;6.82;;;;;;;18.76;26.83;101053.28;5041512;28;20024;-62
2022/04/13 05:31:54;;;;;;;7.00;6.70;;;;;;;19.79;25.83;101068.22;5034690;28;20072;-64
2022/04/13 05:34:19;;;;;;;7.22;6.93;;;;;;;19.65;25.90;101056.75;5062024;28;20117;-65
2022/04/13 05:36:44;;;;;;;7.30;7.00;;;;;;;18.90;26.37;101067.47;5048830;28;20033;-63
2022/04/13 05:39:10;;;;;;;7.47;7.18;;;;;;;18.95;26.05;101045.28;5034196;28;20013;-64
2022/04/13 05:41:35;;;;;;;7.53;7.22;;;;;;;19.80;25.52;101057.25;5033517;28;20481;-64
2022/04/13 05:44:01;;;;;;;7.63;7.32;;;;;;;19.41;26.00;101058.41;5052108;28;20033;-64
2022/04/13 05:46:28;;;;;;;7.20;6.90;;;;;;;20.01;25.29;101065.94;5057653;28;20028;-64
2022/04/13 05:48:53;;;;;;;7.68;7.38;;;;;;;18.82;26.39;101056.97;5035832;28;20063;-64
2022/04/13 05:51:19;;;;;;;7.60;7.30;;;;;;;19.00;25.61;101057.03;5034707;28;20049;-64
2022/04/13 05:53:44;;;;;;;7.50;7.20;;;;;;;19.15;25.62;101061.28;5034378;28;20025;-63
2022/04/13 05:56:09;;;;;;;7.05;6.75;;;;;;;19.35;25.49;101072.72;5020729;28;20518;-64
2022/04/13 05:58:35;;;;;;;7.22;6.93;;;;;;;19.54;25.68;101063.69;5053413;28;20029;-64
2022/04/13 06:01:00;;;;;;;7.10;6.80;;;;;;;19.73;25.26;101055.66;5054009;28;20092;-63
2022/04/13 06:03:26;;;;;;;7.28;6.97;;;;;;;19.26;25.20;101055.22;5053872;28;20384;-64
2022/04/13 06:05:51;;;;;;;7.18;6.88;;;;;;;19.81;25.73;101060.75;5053847;28;20067;-64
2022/04/13 06:08:17;;;;;;;7.30;7.00;;;;;;;20.25;24.83;101067.72;5064016;28;20484;-63
2022/04/13 06:10:43;;;;;;;7.43;7.13;;;;;;;20.05;24.88;101065.28;5051349;28;20108;-63
2022/04/13 06:13:08;;;;;;;6.97;6.68;;;;;;;19.73;24.89;101056.47;5033393;28;20029;-62
2022/04/13 06:15:34;;;;;;;7.20;6.90;;;;;;;19.11;25.65;101060.09;5033990;28;20033;-63
2022/04/13 06:17:59;;;;;;;7.50;7.20;;;;;;;19.54;25.32;101066.38;5036291;28;20025;-65
2022/04/13 06:20:25;;;;;;;7.65;7.35;;;;;;;19.10;26.24;101066.53;5051667;28;20418;-64
2022/04/13 06:22:52;;;;;;;7.00;6.70;;;;;;;20.56;24.75;101055.13;5048598;28;20075;-64
2022/04/13 06:25:18;;;;;;;7.03;6.72;;;;;;;20.44;24.84;101065.88;5053903;28;20063;-63
2022/04/13 06:27:45;;;;;;;7.22;6.93;;;;;;;20.34;25.04;101058.28;5056529;28;20559;-63
2022/04/13 06:30:12;;;;;;;7.30;7.00;;;;;;;21.50;23.84;101067.84;5052956;28;20108;-63
2022/04/13 06:32:44;;;;;;;7.10;6.80;;;;;;;22.31;22.82;101070.75;5057869;28;20021;-61
2022/04/13 06:35:19;;;;;;;6.68;6.38;;;;;;;21.70;23.49;101072.09;5068872;28;20020;-67
2022/04/13 06:37:46;;;;;;;7.07;6.78;;;;;;;22.92;22.17;101081.97;5053448;28;20025;-62
2022/04/13 06:40:13;;;;;;;7.07;6.78;;;;;;;21.53;23.04;101074.69;5061887;28;20441;-63
2022/04/13 06:42:39;;;;;;;7.00;6.70;;;;;;;21.42;24.05;101079.00;5073358;28;20063;-64
2022/04/13 06:45:07;;;;;;;7.35;7.05;;;;;;;22.51;22.62;101078.47;5054892;28;20025;-64
2022/04/13 06:47:33;;;;;;;7.20;6.90;;;;;;;22.68;22.09;101073.09;5060968;28;20043;-65
2022/04/13 06:49:59;;;;;;;7.20;6.90;;;;;;;22.12;22.70;101063.88;5054857;28;20024;-64
2022/04/13 06:52:25;;;;;;;7.22;6.93;;;;;;;21.18;23.09;101058.41;5037647;28;20025;-64
2022/04/13 06:54:50;;;;;;;7.30;7.00;;;;;;;22.19;22.21;101076.19;5052795;28;20017;-63
2022/04/13 06:57:16;;;;;;;7.38;7.07;;;;;;;21.89;22.22;101075.50;5052864;28;20124;-63
2022/04/13 06:59:41;;;;;;;7.32;7.03;;;;;;;22.82;21.52;101077.97;5051826;28;20510;-64
2022/04/13 07:02:10;;;;;;;7.50;7.20;;;;;;;21.52;22.42;101060.38;5037458;28;20037;-64
2022/04/13 07:04:37;;;;;;;7.20;6.90;;;;;;;22.59;21.77;101073.47;5032792;28;20025;-64
2022/04/13 07:07:03;;;;;;;7.18;6.88;;;;;;;23.30;21.30;101081.28;5032725;28;20025;-64
2022/04/13 07:09:29;;;;;;;7.05;6.75;;;;;;;23.32;20.83;101073.72;5052533;28;20377;-64
2022/04/13 07:11:54;;;;;;;7.25;6.95;;;;;;;22.67;20.80;101069.56;5052477;28;20468;-64
2022/04/13 07:14:20;;;;;;;7.10;6.80;;;;;;;22.51;21.14;101073.06;5052706;28;20037;-63
2022/04/13 07:16:46;;;;;;;7.30;7.00;;;;;;;21.90;21.74;101059.06;5052306;28;20480;-64
2022/04/13 07:19:11;;;;;;;7.20;6.90;;;;;;;22.68;21.04;101067.69;5052628;28;20017;-64
2022/04/13 07:21:37;;;;;;;7.28;6.97;;;;;;;21.78;21.45;101055.53;5038539;28;20456;-63
2022/04/13 07:24:03;;;;;;;7.15;6.85;;;;;;;21.52;22.18;101054.97;5032363;28;20033;-64
2022/04/13 07:26:29;;;;;;;7.10;6.80;;;;;;;22.67;20.83;101047.13;5053952;28;20496;-64
2022/04/13 07:28:55;;;;;;;7.40;7.10;;;;;;;23.48;19.88;101040.41;5051065;28;20033;-64
2022/04/13 07:31:21;;;;;;;7.30;7.00;;;;;;;22.68;20.11;101041.47;5051945;28;20112;-64
2022/04/13 07:33:46;;;;;;;6.97;6.68;;;;;;;22.44;20.71;101040.75;5066054;28;20107;-64
2022/04/13 07:36:14;;;;;;;7.20;6.90;;;;;;;22.87;20.00;101036.72;5033514;28;20434;-64
2022/04/13 07:38:40;;;;;;;7.10;6.80;;;;;;;24.10;19.03;101037.53;5031725;28;20056;-64
2022/04/13 07:41:05;;;;;;;7.03;6.72;;;;;;;21.72;20.60;101038.38;5030775;28;20026;-64
2022/04/13 07:43:31;;;;;;;7.28;6.97;;;;;;;20.98;21.69;101026.34;5051841;28;20451;-64
2022/04/13 07:45:56;;;;;;;6.97;6.68;;;;;;;22.61;20.48;101035.38;5051910;28;20078;-63
2022/04/13 07:48:22;;;;;;;7.20;6.90;;;;;;;23.16;19.89;101015.81;5049702;28;20083;-64
2022/04/13 07:50:48;;;;;;;6.80;6.50;;;;;;;20.78;21.07;101032.00;5032553;28;20444;-64
2022/04/13 07:53:14;;;;;;;7.20;6.90;;;;;;;20.69;20.64;101018.03;5032169;28;20032;-63
2022/04/13 07:55:40;;;;;;;7.28;6.97;;;;;;;21.11;20.44;101004.56;5031563;28;20396;-64
2022/04/13 07:58:06;;;;;;;7.10;6.80;;;;;;;21.17;20.81;101014.41;5031804;28;20057;-65
2022/04/13 08:00:32;;;;;;;7.10;6.80;;;;;;;21.50;20.53;101007.66;5031897;28;20034;-64
2022/04/13 08:02:58;;;;;;;7.07;6.78;;;;;;;20.89;20.18;101008.84;5031983;28;20500;-65
2022/04/13 08:05:25;;;;;;;7.07;6.78;;;;;;;21.49;19.65;101019.50;5032012;28;20045;-63
2022/04/13 08:07:51;;;;;;;6.90;6.60;;;;;;;21.55;19.70;101018.56;5032212;28;20022;-64
2022/04/13 08:10:17;;;;;;;7.18;6.88;;;;;;;20.34;21.08;101004.38;5031735;28;20025;-65
2022/04/13 08:12:46;;;;;;;7.50;7.20;;;;;;;19.40;22.59;100996.75;5032135;28;20547;-65
2022/04/13 08:15:14;;;;;;;7.40;7.10;;;;;;;21.09;20.63;101000.44;5031045;28;20033;-65
2022/04/13 08:17:40;;;;;;;7.18;6.88;;;;;;;18.70;22.73;100986.13;5043698;28;20523;-64
2022/04/13 08:20:11;;;;;;;7.15;6.85;;;;;;;17.64;23.24;100991.91;5051704;28;20033;-65
2022/04/13 08:22:37;;;;;;;7.50;7.20;;;;;;;18.50;22.94;100989.72;5050329;28;20063;-64
2022/04/13 08:25:03;;;;;;;7.40;7.10;;;;;;;17.14;24.11;100986.16;5060166;28;20419;-64
2022/04/13 08:27:29;;;;;;;6.85;6.55;;;;;;;16.80;24.75;100966.56;5051799;28;20111;-63
2022/04/13 08:29:54;;;;;;;7.10;6.80;;;;;;;16.79;24.02;100972.94;5051549;28;20452;-63
2022/04/13 08:32:20;;;;;;;7.28;6.97;;;;;;;17.21;23.91;100960.19;5038553;28;20033;-64
2022/04/13 08:34:48;;;;;;;7.43;7.13;;;;;;;16.37;24.01;100959.84;5071452;28;20479;-64
2022/04/13 08:37:14;;;;;;;7.20;6.90;;;;;;;17.46;23.50;100980.97;5071365;28;20694;-65
2022/04/13 08:39:40;;;;;;;7.30;7.00;;;;;;;16.72;24.51;100982.84;5041121;28;20087;-64
2022/04/13 08:42:11;;;;;;;7.13;6.82;;;;;;;17.12;24.31;100972.16;5031689;28;20100;-63
2022/04/13 08:44:45;;;;;;;7.15;6.85;;;;;;;17.92;24.17;100970.16;5048580;28;20218;-64
2022/04/13 08:47:15;;;;;;;7.72;7.43;;;;;;;17.60;23.53;100964.66;5032831;28;20029;-65
2022/04/13 08:49:44;;;;;;;6.78;6.47;;;;;;;17.00;23.68;100960.41;5035218;28;20108;-65
2022/04/13 08:52:12;;;;;;;6.90;6.60;;;;;;;16.76;24.34;100961.84;5035591;28;20489;-64
2022/04/13 08:54:52;;;;;;;7.20;6.90;;;;;;;16.67;24.36;100971.03;5035496;28;20045;-64
2022/04/13 08:57:21;;;;;;;7.13;6.82;;;;;;;16.31;24.65;100937.41;5035153;28;20053;-64
2022/04/13 09:00:08;;;;;;;7.03;6.72;;;;;;;16.64;24.83;100968.78;5043192;28;20029;-64
2022/04/13 09:02:50;;;;;;;7.72;7.32;;;;;;;17.14;24.61;100945.97;5035255;28;20099;-63
2022/04/13 09:05:18;;;;;;;7.00;6.70;;;;;;;16.46;25.85;100950.63;5035161;28;20075;-63
2022/04/13 09:07:49;;;;;;;7.78;7.47;;;;;;;16.66;25.37;100935.41;5046104;28;20032;-64
2022/04/13 09:10:23;;;;;;;7.40;7.10;;;;;;;17.40;24.78;100940.53;5074613;28;20016;-63
2022/04/13 09:12:50;;;;;;;7.60;7.30;;;;;;;17.20;24.90;100933.59;5069270;28;20044;-64
2022/04/13 09:15:16;;;;;;;7.28;6.97;;;;;;;17.29;25.04;100925.09;5034755;28;20539;-64
2022/04/13 09:17:42;;;;;;;6.65;6.35;;;;;;;16.44;25.15;100928.56;5034853;28;20072;-64
2022/04/13 09:20:09;;;;;;;7.28;6.97;;;;;;;17.36;24.66;100931.28;5054328;28;20508;-64
2022/04/13 09:22:36;;;;;;;7.78;7.47;;;;;;;16.98;25.12;100928.44;5054290;28;20524;-64
2022/04/13 09:25:04;;;;;;;7.05;6.75;;;;;;;17.12;23.95;100926.59;5057872;28;20016;-64
2022/04/13 09:27:31;;;;;;;6.93;6.63;;;;;;;17.07;24.17;100934.41;5058535;28;20026;-63
2022/04/13 09:29:57;;;;;;;7.13;6.82;;;;;;;16.80;24.73;100917.50;5034484;28;20021;-63
2022/04/13 09:32:23;;;;;;;7.18;6.88;;;;;;;17.29;24.43;100914.38;5039318;28;20030;-64
2022/04/13 09:34:51;;;;;;;7.20;6.90;;;;;;;16.61;24.70;100919.13;5063707;28;20029;-64
2022/04/13 09:37:16;;;;;;;7.40;7.10;;;;;;;17.06;24.26;100925.56;5053924;28;20024;-64
2022/04/13 09:39:42;;;;;;;7.30;7.00;;;;;;;17.05;23.76;100923.91;5052125;28;20024;-63
2022/04/13 09:42:07;;;;;;;7.50;7.20;;;;;;;17.50;23.54;100918.66;5041322;28;20037;-64
2022/04/13 09:44:33;;;;;;;6.90;6.60;;;;;;;18.02;22.93;100918.72;5052498;28;20380;-63
2022/04/13 09:47:12;;;;;;;7.50;7.20;;;;;;;17.44;22.95;100921.38;5053876;28;20100;-64
2022/04/13 09:49:45;;;;;;;6.75;6.45;;;;;;;17.39;23.15;100906.72;5054055;28;20477;-64
2022/04/13 09:52:11;;;;;;;7.03;6.72;;;;;;;17.37;22.49;100913.34;5054114;28;20036;-64
2022/04/13 09:54:45;;;;;;;6.78;6.47;;;;;;;17.18;23.16;100919.53;5054127;28;20029;-65
2022/04/13 09:57:23;;;;;;;7.00;6.70;;;;;;;17.08;23.11;100925.34;5033520;28;20061;-64
2022/04/13 10:00:00;;;;;;;7.03;6.72;;;;;;;16.74;23.01;100919.16;5053477;28;20488;-64
2022/04/13 10:02:39;;;;;;;6.80;6.50;;;;;;;16.12;23.64;100908.72;5052708;28;20024;-63
2022/04/13 10:05:18;;;;;;;7.00;6.70;;;;;;;15.44;23.61;100896.06;5053971;28;20029;-63
2022/04/13 10:07:44;;;;;;;6.70;6.40;;;;;;;15.61;24.22;100891.25;5058017;28;20020;-64
2022/04/13 10:10:24;;;;;;;7.15;6.85;;;;;;;15.86;24.35;100910.28;5049591;28;20021;-63
2022/04/13 10:12:50;;;;;;;7.65;7.35;;;;;;;15.71;24.75;100907.75;5033167;28;20030;-64
2022/04/13 10:15:16;;;;;;;7.13;6.82;;;;;;;16.14;24.74;100907.50;5040090;28;20032;-64
2022/04/13 10:17:42;;;;;;;7.30;7.00;;;;;;;15.50;24.65;100899.81;5053318;28;20060;-64
2022/04/13 10:20:07;;;;;;;6.90;6.60;;;;;;;15.15;25.39;100864.25;5053371;28;20033;-63
2022/04/13 10:22:33;;;;;;;6.90;6.60;;;;;;;15.59;25.17;100885.25;5053437;28;20068;-63
2022/04/13 10:25:20;;;;;;;6.95;6.65;;;;;;;15.43;25.00;100897.09;5041236;28;20424;-65
2022/04/13 10:27:57;;;;;;;7.50;7.20;;;;;;;15.61;24.94;100890.41;5073171;28;20021;-63
2022/04/13 10:30:34;;;;;;;6.88;6.57;;;;;;;15.32;24.64;100878.94;5068813;28;20376;-64
2022/04/13 10:33:11;;;;;;;6.70;6.40;;;;;;;15.38;24.30;100882.66;5060890;28;20020;-63
2022/04/13 10:35:46;;;;;;;6.43;6.13;;;;;;;15.32;24.39;100883.44;5073176;28;20101;-65
2022/04/13 10:38:12;;;;;;;6.50;6.20;;;;;;;15.42;23.88;100907.97;5050877;28;20098;-64
2022/04/13 10:40:40;;;;;;;6.60;6.30;;;;;;;15.24;24.31;100910.34;5033341;28;20028;-64
2022/04/13 10:43:09;;;;;;;6.65;6.35;;;;;;;15.31;23.60;100905.88;5039753;28;20024;-64
2022/04/13 10:45:39;;;;;;;6.75;6.45;;;;;;;15.20;24.19;100909.88;5053389;28;20086;-64
2022/04/13 10:48:07;;;;;;;6.97;6.68;;;;;;;14.98;24.61;100889.59;5050953;28;20100;-64
2022/04/13 10:50:38;;;;;;;6.90;6.60;;;;;;;14.69;24.78;100912.81;5033026;28;20480;-64
2022/04/13 10:53:29;;;;;;;6.75;6.45;;;;;;;14.51;25.32;100902.56;5032927;28;20037;-64
2022/04/13 10:56:05;;;;;;;7.00;6.70;;;;;;;14.47;25.03;100892.44;5032880;28;20041;-64
2022/04/13 10:59:01;;;;;;;6.63;6.32;;;;;;;14.80;24.43;100906.13;5042159;28;20029;-63
2022/04/13 11:01:31;;;;;;;6.30;6.00;;;;;;;14.71;24.58;100910.78;5053145;28;20446;-64
2022/04/13 11:03:57;;;;;;;7.07;6.78;;;;;;;14.56;24.41;100889.47;5053017;28;20433;-63
2022/04/13 11:06:23;;;;;;;6.60;6.30;;;;;;;14.68;24.79;100899.63;5041004;28;20061;-64
2022/04/13 11:09:01;;;;;;;6.75;6.45;;;;;;;14.59;24.62;100893.59;5061765;28;20025;-63
2022/04/13 11:11:29;;;;;;;6.85;6.55;;;;;;;14.77;24.61;100890.47;5066026;28;20025;-65
2022/04/13 11:13:55;;;;;;;7.07;6.78;;;;;;;14.74;25.33;100893.53;5052351;28;20546;-63
2022/04/13 11:16:22;;;;;;;6.70;6.40;;;;;;;15.10;24.88;100896.06;5052235;28;20492;-63
2022/04/13 11:19:06;;;;;;;7.50;7.20;;;;;;;15.11;24.95;100890.50;5051279;28;20423;-64
2022/04/13 11:21:32;;;;;;;6.60;6.30;;;;;;;14.95;24.84;100898.84;5032467;28;20052;-63
2022/04/13 11:23:58;;;;;;;6.65;6.35;;;;;;;15.17;24.53;100895.09;5032367;28;20029;-64
2022/04/13 11:26:47;;;;;;;6.72;6.43;;;;;;;14.78;24.08;100871.59;5059327;28;20401;-64
2022/04/13 11:29:18;;;;;;;7.10;6.80;;;;;;;14.71;24.39;100876.06;5048765;28;20437;-64
2022/04/13 11:32:02;;;;;;;6.95;6.65;;;;;;;15.06;24.15;100871.59;5052258;28;20037;-63